createdAt,value
2023-03-06T00:00:22.960Z,22.50
2023-03-06T00:03:46.669Z,24.75
2023-03-06T00:06:49.453Z,24.75
2023-03-06T00:09:51.881Z,30.00
2023-03-06T00:12:57.002Z,23.75
2023-03-06T00:16:01.235Z,26.50
2023-03-06T00:19:04.010Z,26.50
2023-03-06T00:22:06.415Z,23.00
2023-03-06T00:25:13.934Z,24.50
2023-03-06T00:28:17.526Z,28.50
2023-03-06T00:31:20.478Z,27.00
2023-03-06T00:34:23.037Z,25.25
2023-03-06T00:37:26.404Z,29.50
2023-03-06T00:40:28.945Z,24.75
2023-03-06T00:43:31.809Z,0.00
2023-03-06T00:46:35.490Z,30.00
2023-03-06T00:49:38.396Z,23.00
2023-03-06T00:52:42.250Z,27.50
2023-03-06T00:55:45.910Z,26.00
2023-03-06T00:58:48.367Z,26.50
2023-03-06T01:01:51.272Z,25.00
2023-03-06T01:04:53.811Z,25.00
2023-03-06T01:07:56.575Z,28.00
2023-03-06T01:10:59.115Z,26.75
2023-03-06T01:14:01.925Z,28.00
2023-03-06T01:17:04.778Z,27.75
2023-03-06T01:20:08.153Z,28.25
2023-03-06T01:23:10.562Z,28.00
2023-03-06T01:26:14.110Z,27.50
2023-03-06T01:29:16.607Z,28.00
2023-03-06T01:32:19.467Z,28.50
2023-03-06T01:35:22.006Z,29.75
2023-03-06T01:38:24.975Z,28.00
2023-03-06T01:41:27.711Z,26.00
2023-03-06T01:44:30.612Z,24.50
2023-03-06T01:47:33.238Z,24.75
2023-03-06T01:50:36.195Z,29.00
2023-03-06T01:53:40.545Z,26.50
2023-03-06T01:56:45.613Z,28.00
2023-03-06T01:59:53.209Z,27.75
2023-03-06T02:03:17.952Z,26.75
2023-03-06T02:06:22.064Z,27.75
2023-03-06T02:09:30.073Z,28.50
2023-03-06T02:12:32.582Z,28.75
2023-03-06T02:15:35.354Z,22.00
2023-03-06T02:18:38.567Z,21.00
2023-03-06T02:21:41.406Z,29.00
2023-03-06T02:25:05.389Z,26.50
2023-03-06T02:28:12.702Z,28.50
2023-03-06T02:31:25.966Z,27.75
2023-03-06T02:34:28.708Z,25.25
2023-03-06T02:37:31.266Z,24.00
2023-03-06T02:40:36.949Z,29.50
2023-03-06T02:43:40.497Z,26.00
2023-03-06T02:46:43.268Z,27.50
2023-03-06T02:49:45.932Z,25.75
2023-03-06T02:52:48.909Z,24.25
2023-03-06T02:55:51.612Z,25.00
2023-03-06T02:58:54.455Z,26.25
2023-03-06T03:01:56.931Z,27.25
2023-03-06T03:05:00.288Z,23.75
2023-03-06T03:08:02.929Z,26.00
2023-03-06T03:11:05.937Z,21.25
2023-03-06T03:14:18.105Z,22.00
2023-03-06T03:17:23.431Z,25.25
2023-03-06T03:20:25.969Z,23.75
2023-03-06T03:23:28.790Z,24.50
2023-03-06T03:26:33.431Z,24.25
2023-03-06T03:29:45.054Z,25.00
2023-03-06T03:32:47.780Z,27.25
2023-03-06T03:35:57.538Z,21.25
2023-03-06T03:39:01.309Z,24.00
2023-03-06T03:42:04.316Z,27.00
2023-03-06T03:45:08.817Z,23.50
2023-03-06T03:48:11.866Z,25.25
2023-03-06T03:51:16.844Z,23.00
2023-03-06T03:54:23.969Z,24.50
2023-03-06T03:57:28.894Z,22.00
2023-03-06T04:00:32.685Z,23.00
2023-03-06T04:03:45.833Z,25.00
2023-03-06T04:06:50.646Z,24.25
2023-03-06T04:09:54.425Z,21.50
2023-03-06T04:12:57.632Z,23.00
2023-03-06T04:16:01.870Z,25.00
2023-03-06T04:19:06.987Z,22.50
2023-03-06T04:22:10.073Z,18.00
2023-03-06T04:25:15.152Z,11.00
2023-03-06T04:28:18.071Z,23.00
2023-03-06T04:31:21.398Z,21.00
2023-03-06T04:34:24.492Z,24.50
2023-03-06T04:37:27.773Z,22.00
2023-03-06T04:40:33.423Z,15.00
2023-03-06T04:43:40.048Z,24.75
2023-03-06T04:46:42.620Z,18.25
2023-03-06T04:49:46.562Z,24.00
2023-03-06T04:52:49.061Z,23.00
2023-03-06T04:55:51.912Z,20.25
2023-03-06T04:58:54.646Z,21.75
2023-03-06T05:39:24.028Z,21.75
2023-03-06T05:42:28.737Z,23.50
2023-03-06T05:45:31.274Z,20.50
2023-03-06T05:48:35.222Z,21.00
2023-03-06T05:51:37.702Z,23.75
2023-03-06T05:54:40.957Z,21.50
2023-03-06T05:57:43.440Z,23.25
2023-03-06T06:00:46.233Z,21.75
2023-03-06T06:03:48.803Z,23.00
2023-03-06T06:06:53.429Z,18.00
2023-03-06T06:09:55.921Z,18.25
2023-03-06T06:12:58.887Z,24.25
2023-03-06T06:16:10.177Z,24.25
2023-03-06T06:19:19.032Z,27.00
2023-03-06T06:22:21.541Z,26.00
2023-03-06T06:25:24.236Z,24.50
2023-03-06T06:28:28.431Z,26.00
2023-03-06T06:31:31.720Z,30.00
2023-03-06T06:34:34.983Z,29.50
2023-03-06T06:37:37.808Z,30.00
2023-03-06T06:40:40.194Z,28.50
2023-03-06T06:43:43.024Z,30.00
2023-03-06T06:50:13.277Z,30.50
2023-03-06T06:53:15.756Z,28.00
2023-03-06T06:56:18.540Z,30.50
2023-03-06T06:59:23.910Z,30.50
2023-03-06T07:02:26.787Z,30.00
2023-03-06T07:05:29.270Z,27.75
2023-03-06T07:08:32.027Z,30.25
2023-03-06T07:11:34.770Z,30.00
2023-03-06T07:14:37.674Z,30.00
2023-03-06T07:17:40.065Z,25.50
2023-03-06T07:20:42.840Z,32.00
2023-03-06T07:23:45.544Z,31.75
2023-03-06T07:26:48.943Z,33.50
2023-03-06T07:29:51.798Z,27.75
2023-03-06T07:32:56.122Z,33.00
2023-03-06T07:35:58.838Z,22.25
2023-03-06T07:39:01.802Z,30.50
2023-03-06T07:42:04.669Z,30.00
2023-03-06T07:45:09.330Z,30.50
2023-03-06T07:48:12.027Z,32.50
2023-03-06T07:51:20.552Z,30.00
2023-03-06T07:54:23.161Z,27.25
2023-03-06T07:57:26.319Z,29.50
2023-03-06T08:05:03.909Z,30.00
2023-03-06T08:08:12.831Z,30.25
2023-03-06T08:11:17.793Z,21.00
2023-03-06T08:14:20.267Z,28.00
2023-03-06T08:17:23.185Z,28.00
2023-03-06T08:20:26.195Z,18.00
2023-03-06T08:23:30.502Z,27.00
2023-03-06T08:26:34.663Z,27.00
2023-03-06T08:29:37.421Z,26.00
2023-03-06T08:32:39.997Z,20.00
2023-03-06T08:35:42.914Z,24.25
2023-03-06T08:38:45.510Z,25.25
2023-03-06T08:41:48.361Z,18.75
2023-03-06T08:44:50.877Z,23.50
2023-03-06T08:47:53.625Z,23.00
2023-03-06T08:50:56.354Z,22.50
2023-03-06T08:53:59.541Z,21.50
2023-03-06T08:57:02.319Z,22.50
2023-03-06T09:00:09.345Z,18.25
2023-03-06T09:03:11.907Z,19.00
2023-03-06T09:06:14.843Z,19.00
2023-03-06T09:09:17.436Z,16.00
2023-03-06T09:12:20.351Z,18.67
2023-03-06T09:15:23.888Z,17.33
2023-03-06T09:18:26.708Z,15.00
2023-03-06T09:21:29.326Z,15.00
2023-03-06T09:24:32.122Z,16.00
2023-03-06T09:27:34.646Z,18.00
2023-03-06T09:30:37.656Z,13.00
2023-03-06T09:33:40.178Z,15.00
2023-03-06T09:36:55.956Z,13.00
2023-03-06T09:39:59.350Z,13.00
2023-03-06T09:43:02.177Z,12.67
2023-03-06T09:46:20.752Z,13.67
2023-03-06T09:49:57.730Z,13.33
2023-03-06T09:53:21.792Z,14.33
2023-03-06T09:56:32.130Z,9.00
2023-03-06T09:59:34.535Z,12.33
2023-03-06T10:02:51.051Z,12.00
2023-03-06T10:06:04.750Z,16.00
2023-03-06T10:09:18.467Z,12.33
2023-03-06T10:12:25.838Z,15.00
2023-03-06T10:15:33.911Z,15.67
2023-03-06T10:18:39.289Z,15.00
2023-03-06T10:21:59.249Z,15.00
2023-03-06T10:25:29.646Z,15.00
2023-03-06T10:28:47.681Z,13.00
2023-03-06T10:32:10.333Z,12.00
2023-03-06T10:36:12.506Z,10.67
2023-03-06T11:32:28.477Z,12.00
2023-03-06T11:51:59.070Z,6.00
2023-03-06T12:23:14.466Z,13.00
2023-03-06T13:35:40.264Z,6.00
2023-03-06T13:38:53.226Z,10.00
2023-03-06T13:42:00.172Z,12.00
2023-03-06T13:51:22.280Z,12.00
2023-03-06T14:00:32.784Z,12.00
2023-03-06T14:04:20.462Z,13.00
2023-03-06T14:07:43.738Z,15.00
2023-03-06T14:10:48.730Z,15.00
2023-03-06T14:13:54.505Z,15.00
2023-03-06T14:16:59.158Z,12.33
2023-03-06T14:20:13.166Z,10.00
2023-03-06T14:23:22.467Z,16.00
2023-03-06T14:26:29.508Z,15.00
2023-03-06T14:29:33.617Z,15.00
2023-03-06T14:32:38.700Z,16.67
2023-03-06T14:35:42.099Z,16.67
2023-03-06T14:38:56.277Z,18.33
2023-03-06T14:42:27.254Z,15.00
2023-03-06T14:45:30.299Z,17.67
2023-03-06T14:48:41.254Z,19.00
2023-03-06T14:51:55.478Z,18.67
2023-03-06T14:54:58.144Z,20.33
2023-03-06T14:58:11.207Z,18.67
2023-03-06T15:01:34.718Z,16.00
2023-03-06T15:09:45.950Z,19.00
2023-03-06T15:12:48.834Z,18.00
2023-03-06T15:16:20.204Z,18.00
2023-03-06T15:20:38.670Z,18.00
2023-03-06T15:23:48.732Z,19.50
2023-03-06T15:27:55.004Z,15.33
2023-03-06T15:31:20.890Z,18.33
2023-03-06T15:34:24.647Z,21.00
2023-03-06T15:37:29.325Z,18.67
2023-03-06T15:40:33.306Z,19.67
2023-03-06T15:43:40.428Z,20.33
2023-03-06T15:46:44.432Z,21.67
2023-03-06T15:49:52.150Z,11.33
2023-03-06T15:52:55.644Z,16.67
2023-03-06T15:55:59.962Z,22.00
2023-03-06T15:59:02.964Z,21.67
2023-03-06T16:02:18.091Z,21.33
2023-03-06T16:05:21.947Z,23.33
2023-03-06T16:08:25.530Z,19.00
2023-03-06T16:11:38.646Z,24.00
2023-03-06T16:14:50.555Z,24.00
2023-03-06T16:17:54.231Z,23.33
2023-03-06T16:30:33.896Z,21.67
2023-03-06T16:33:39.209Z,24.00
2023-03-06T16:36:42.945Z,22.00
2023-03-06T16:39:47.824Z,21.67
2023-03-06T16:42:55.123Z,21.00
2023-03-06T16:46:02.454Z,25.00
2023-03-06T16:49:05.919Z,25.00
2023-03-06T16:52:10.677Z,21.00
2023-03-06T16:55:14.546Z,24.25
2023-03-06T16:58:18.012Z,27.25
2023-03-06T17:01:23.956Z,25.00
2023-03-06T17:04:27.035Z,25.00
2023-03-06T17:07:30.329Z,28.00
2023-03-06T17:10:33.479Z,31.50
2023-03-06T17:13:37.033Z,33.00
2023-03-06T17:16:41.098Z,27.75
2023-03-06T17:19:47.943Z,28.50
2023-03-06T17:22:50.727Z,30.25
2023-03-06T17:26:13.905Z,33.75
2023-03-06T17:29:17.400Z,32.50
2023-03-06T17:32:22.437Z,33.25
2023-03-06T17:35:25.064Z,35.50
2023-03-06T17:38:29.406Z,35.00
2023-03-06T17:41:34.550Z,39.00
2023-03-06T17:44:40.107Z,35.00
2023-03-06T17:47:55.654Z,36.25
2023-03-06T17:51:00.800Z,37.50
2023-03-06T17:54:04.256Z,36.50
2023-03-06T17:57:08.562Z,35.75
2023-03-06T18:00:12.762Z,34.00
2023-03-06T18:03:16.807Z,37.75
2023-03-06T18:06:23.666Z,31.50
2023-03-06T18:09:31.537Z,38.50
2023-03-06T18:12:36.298Z,35.00
2023-03-06T18:15:42.036Z,38.50
2023-03-06T18:18:46.134Z,36.00
2023-03-06T18:21:53.139Z,39.75
2023-03-06T18:24:58.615Z,38.50
2023-03-06T18:28:03.165Z,35.75
2023-03-06T18:31:09.715Z,33.00
2023-03-06T18:34:18.526Z,34.00
2023-03-06T18:37:22.701Z,33.25
2023-03-06T18:40:26.860Z,39.00
2023-03-06T18:43:30.346Z,36.50
2023-03-06T18:46:41.862Z,39.00
2023-03-06T18:49:46.730Z,36.00
2023-03-06T18:52:52.923Z,35.00
2023-03-06T18:55:56.609Z,36.00
2023-03-06T18:59:05.554Z,32.00
2023-03-06T19:02:11.612Z,36.00
2023-03-06T19:05:16.150Z,33.25
2023-03-06T19:08:20.458Z,34.00
2023-03-06T19:11:27.562Z,33.00
2023-03-06T19:14:32.191Z,30.75
2023-03-06T19:17:38.466Z,30.25
2023-03-06T19:20:52.727Z,34.00
2023-03-06T19:23:58.988Z,33.75
2023-03-06T19:27:04.232Z,35.50
2023-03-06T19:30:09.082Z,31.50
2023-03-06T19:33:15.961Z,33.50
2023-03-06T19:36:24.386Z,33.25
2023-03-06T19:39:29.633Z,21.50
2023-03-06T19:42:33.796Z,32.00
2023-03-06T19:45:43.415Z,33.50
2023-03-06T19:48:48.191Z,32.50
2023-03-06T19:51:53.973Z,33.00
2023-03-06T19:54:59.724Z,33.00
2023-03-06T19:58:04.378Z,32.00
2023-03-06T20:01:12.348Z,33.00
2023-03-06T20:04:17.856Z,33.25
2023-03-06T20:07:22.878Z,33.50
2023-03-06T20:10:27.302Z,33.00
2023-03-06T20:13:31.656Z,33.00
2023-03-06T20:16:36.285Z,31.50
2023-03-06T20:19:40.160Z,31.00
2023-03-06T20:22:44.603Z,30.00
2023-03-06T20:25:48.557Z,32.00
2023-03-06T20:28:53.045Z,30.50
2023-03-06T20:31:59.785Z,30.00
2023-03-06T20:35:08.163Z,33.00
2023-03-06T20:38:13.571Z,30.25
2023-03-06T20:41:28.661Z,31.50
2023-03-06T20:44:32.805Z,33.00
2023-03-06T20:47:39.262Z,33.00
2023-03-06T20:50:48.501Z,30.25
2023-03-06T20:53:54.070Z,30.00
2023-03-06T20:56:58.848Z,31.00
2023-03-06T21:00:02.465Z,32.75
2023-03-06T21:03:06.444Z,29.50
2023-03-06T21:06:10.083Z,29.50
2023-03-06T21:09:15.867Z,30.75
2023-03-06T21:12:19.998Z,28.00
2023-03-06T21:15:27.694Z,30.00
2023-03-06T21:18:30.668Z,30.25
2023-03-06T21:21:36.172Z,30.50
2023-03-06T21:24:38.831Z,29.50
2023-03-06T21:27:41.906Z,30.00
2023-03-06T21:30:46.207Z,27.00
2023-03-06T21:33:50.439Z,29.00
2023-03-06T21:36:53.363Z,27.75
2023-03-06T21:40:00.116Z,27.75
2023-03-06T21:43:03.770Z,30.00
2023-03-06T21:46:07.898Z,28.00
2023-03-06T21:49:10.631Z,30.00
2023-03-06T21:52:13.497Z,32.50
2023-03-06T21:55:16.503Z,30.25
2023-03-06T21:58:20.043Z,31.00
2023-03-06T23:21:45.899Z,30.00
